sensor_id;sensor_type;location;lat;lon;timestamp;pressure;altitude;pressure_sealevel;temperature;humidity
20656;BME280;10487;53.320;8.672;2023-03-01T00:01:50;102987.56;;;-2.84;51.81
20656;BME280;10487;53.320;8.672;2023-03-01T00:04:52;102982.22;;;-2.89;51.78
20656;BME280;10487;53.320;8.672;2023-03-01T00:07:53;102968.19;;;-2.95;51.59
20656;BME280;10487;53.320;8.672;2023-03-01T00:11:06;102970.72;;;-3.00;51.69
20656;BME280;10487;53.320;8.672;2023-03-01T00:14:09;102961.03;;;-3.06;51.78
20656;BME280;10487;53.320;8.672;2023-03-01T00:17:10;102960.97;;;-3.10;52.00
20656;BME280;10487;53.320;8.672;2023-03-01T00:20:12;102958.28;;;-3.13;52.19
20656;BME280;10487;53.320;8.672;2023-03-01T00:23:14;102959.06;;;-3.19;51.64
20656;BME280;10487;53.320;8.672;2023-03-01T00:26:17;102951.16;;;-3.23;52.06
20656;BME280;10487;53.320;8.672;2023-03-01T00:29:19;102955.41;;;-3.28;52.47
20656;BME280;10487;53.320;8.672;2023-03-01T00:32:20;102946.66;;;-3.32;52.10
20656;BME280;10487;53.320;8.672;2023-03-01T00:35:22;102952.72;;;-3.34;52.38
20656;BME280;10487;53.320;8.672;2023-03-01T00:38:24;102945.69;;;-3.37;52.08
20656;BME280;10487;53.320;8.672;2023-03-01T00:41:26;102950.88;;;-3.38;52.42
20656;BME280;10487;53.320;8.672;2023-03-01T00:44:28;102940.41;;;-3.38;52.18
20656;BME280;10487;53.320;8.672;2023-03-01T00:47:29;102936.97;;;-3.39;52.07
20656;BME280;10487;53.320;8.672;2023-03-01T00:50:31;102936.06;;;-3.39;51.72
20656;BME280;10487;53.320;8.672;2023-03-01T00:53:33;102944.72;;;-3.42;51.75
20656;BME280;10487;53.320;8.672;2023-03-01T00:56:35;102939.47;;;-3.43;52.27
20656;BME280;10487;53.320;8.672;2023-03-01T00:59:37;102934.22;;;-3.45;52.20
20656;BME280;10487;53.320;8.672;2023-03-01T01:02:38;102935.03;;;-3.47;51.71
20656;BME280;10487;53.320;8.672;2023-03-01T01:05:40;102934.09;;;-3.51;52.40
20656;BME280;10487;53.320;8.672;2023-03-01T01:08:41;102940.97;;;-3.56;51.99
20656;BME280;10487;53.320;8.672;2023-03-01T01:11:47;102943.50;;;-3.60;52.37
20656;BME280;10487;53.320;8.672;2023-03-01T01:14:50;102936.47;;;-3.64;51.98
20656;BME280;10487;53.320;8.672;2023-03-01T01:17:51;102930.34;;;-3.66;52.02
20656;BME280;10487;53.320;8.672;2023-03-01T01:20:53;102925.94;;;-3.69;51.89
20656;BME280;10487;53.320;8.672;2023-03-01T01:23:55;102926.78;;;-3.70;52.38
20656;BME280;10487;53.320;8.672;2023-03-01T01:26:56;102937.19;;;-3.72;52.04
20656;BME280;10487;53.320;8.672;2023-03-01T01:29:58;102923.19;;;-3.77;52.14
20656;BME280;10487;53.320;8.672;2023-03-01T01:32:59;102930.09;;;-3.79;52.57
20656;BME280;10487;53.320;8.672;2023-03-01T01:36:01;102928.31;;;-3.80;52.04
20656;BME280;10487;53.320;8.672;2023-03-01T01:39:04;102917.00;;;-3.82;51.95
20656;BME280;10487;53.320;8.672;2023-03-01T01:42:05;102918.69;;;-3.84;51.92
20656;BME280;10487;53.320;8.672;2023-03-01T01:45:31;102909.06;;;-3.86;52.45
20656;BME280;10487;53.320;8.672;2023-03-01T01:48:45;102901.19;;;-3.89;52.03
20656;BME280;10487;53.320;8.672;2023-03-01T01:51:49;102896.81;;;-3.90;52.12
20656;BME280;10487;53.320;8.672;2023-03-01T01:54:59;102895.91;;;-3.91;52.12
20656;BME280;10487;53.320;8.672;2023-03-01T01:58:04;102896.72;;;-3.93;52.29
20656;BME280;10487;53.320;8.672;2023-03-01T02:01:07;102888.00;;;-3.97;51.81
20656;BME280;10487;53.320;8.672;2023-03-01T02:04:09;102886.19;;;-3.99;52.45
20656;BME280;10487;53.320;8.672;2023-03-01T02:07:17;102876.59;;;-4.02;52.21
20656;BME280;10487;53.320;8.672;2023-03-01T02:10:21;102873.06;;;-4.04;52.12
20656;BME280;10487;53.320;8.672;2023-03-01T02:13:23;102879.09;;;-4.06;52.20
20656;BME280;10487;53.320;8.672;2023-03-01T02:16:25;102877.31;;;-4.09;52.33
20656;BME280;10487;53.320;8.672;2023-03-01T02:19:41;102881.63;;;-4.11;52.20
20656;BME280;10487;53.320;8.672;2023-03-01T02:22:46;102878.09;;;-4.13;52.51
20656;BME280;10487;53.320;8.672;2023-03-01T02:29:02;102867.63;;;-4.16;52.50
20656;BME280;10487;53.320;8.672;2023-03-01T02:32:04;102866.72;;;-4.16;52.64
20656;BME280;10487;53.320;8.672;2023-03-01T02:35:07;102871.94;;;-4.16;52.27
20656;BME280;10487;53.320;8.672;2023-03-01T02:38:09;102867.56;;;-4.17;52.71
20656;BME280;10487;53.320;8.672;2023-03-01T02:41:13;102870.16;;;-4.17;52.64
20656;BME280;10487;53.320;8.672;2023-03-01T02:44:16;102871.88;;;-4.19;52.15
20656;BME280;10487;53.320;8.672;2023-03-01T02:47:17;102871.00;;;-4.20;52.62
20656;BME280;10487;53.320;8.672;2023-03-01T02:51:34;102872.75;;;-4.19;52.32
20656;BME280;10487;53.320;8.672;2023-03-01T02:57:48;102871.78;;;-4.24;52.83
20656;BME280;10487;53.320;8.672;2023-03-01T03:00:52;102871.72;;;-4.25;52.69
20656;BME280;10487;53.320;8.672;2023-03-01T03:03:54;102872.56;;;-4.28;52.44
20656;BME280;10487;53.320;8.672;2023-03-01T03:06:55;102871.66;;;-4.30;52.88
20656;BME280;10487;53.320;8.672;2023-03-01T03:09:57;102873.38;;;-4.30;52.25
20656;BME280;10487;53.320;8.672;2023-03-01T03:13:04;102876.84;;;-4.30;52.41
20656;BME280;10487;53.320;8.672;2023-03-01T03:16:06;102875.13;;;-4.29;52.16
20656;BME280;10487;53.320;8.672;2023-03-01T03:19:08;102862.09;;;-4.29;52.78
20656;BME280;10487;53.320;8.672;2023-03-01T03:22:09;102862.13;;;-4.28;52.70
20656;BME280;10487;53.320;8.672;2023-03-01T03:25:12;102856.97;;;-4.26;52.70
20656;BME280;10487;53.320;8.672;2023-03-01T03:28:13;102853.47;;;-4.27;52.82
20656;BME280;10487;53.320;8.672;2023-03-01T03:31:17;102854.38;;;-4.25;52.60
20656;BME280;10487;53.320;8.672;2023-03-01T03:34:18;102850.03;;;-4.26;52.38
20656;BME280;10487;53.320;8.672;2023-03-01T03:37:20;102844.75;;;-4.27;52.66
20656;BME280;10487;53.320;8.672;2023-03-01T03:40:46;102841.25;;;-4.29;52.94
20656;BME280;10487;53.320;8.672;2023-03-01T03:43:48;102834.31;;;-4.29;52.45
20656;BME280;10487;53.320;8.672;2023-03-01T03:46:50;102828.13;;;-4.32;52.54
20656;BME280;10487;53.320;8.672;2023-03-01T03:49:51;102834.22;;;-4.33;52.88
20656;BME280;10487;53.320;8.672;2023-03-01T03:52:53;102829.81;;;-4.36;52.89
20656;BME280;10487;53.320;8.672;2023-03-01T03:55:55;102826.34;;;-4.37;52.56
20656;BME280;10487;53.320;8.672;2023-03-01T03:58:56;102827.16;;;-4.38;52.72
20656;BME280;10487;53.320;8.672;2023-03-01T04:01:58;102819.31;;;-4.39;52.95
20656;BME280;10487;53.320;8.672;2023-03-01T04:05:00;102822.81;;;-4.39;52.54
20656;BME280;10487;53.320;8.672;2023-03-01T04:08:02;102822.78;;;-4.40;53.17
20656;BME280;10487;53.320;8.672;2023-03-01T04:11:04;102825.38;;;-4.40;52.90
20656;BME280;10487;53.320;8.672;2023-03-01T04:14:25;102828.84;;;-4.41;53.10
20656;BME280;10487;53.320;8.672;2023-03-01T04:17:27;102826.25;;;-4.41;52.35
20656;BME280;10487;53.320;8.672;2023-03-01T04:20:30;102821.88;;;-4.42;52.22
20656;BME280;10487;53.320;8.672;2023-03-01T04:23:32;102817.53;;;-4.42;53.21
20656;BME280;10487;53.320;8.672;2023-03-01T04:26:33;102820.97;;;-4.43;52.98
20656;BME280;10487;53.320;8.672;2023-03-01T04:29:35;102815.75;;;-4.44;52.67
20656;BME280;10487;53.320;8.672;2023-03-01T04:32:37;102816.66;;;-4.42;52.71
20656;BME280;10487;53.320;8.672;2023-03-01T04:35:38;102810.56;;;-4.43;52.72
20656;BME280;10487;53.320;8.672;2023-03-01T04:38:40;102814.03;;;-4.42;52.97
20656;BME280;10487;53.320;8.672;2023-03-01T04:41:42;102807.13;;;-4.42;52.85
20656;BME280;10487;53.320;8.672;2023-03-01T04:44:46;102812.31;;;-4.42;53.02
20656;BME280;10487;53.320;8.672;2023-03-01T04:47:48;102810.56;;;-4.43;53.33
20656;BME280;10487;53.320;8.672;2023-03-01T04:50:50;102809.72;;;-4.42;52.50
20656;BME280;10487;53.320;8.672;2023-03-01T04:53:51;102797.53;;;-4.43;53.00
20656;BME280;10487;53.320;8.672;2023-03-01T04:56:54;102807.94;;;-4.44;53.05
20656;BME280;10487;53.320;8.672;2023-03-01T04:59:55;102807.03;;;-4.45;53.15
20656;BME280;10487;53.320;8.672;2023-03-01T05:02:59;102803.53;;;-4.47;53.20
20656;BME280;10487;53.320;8.672;2023-03-01T05:06:01;102805.31;;;-4.46;53.32
20656;BME280;10487;53.320;8.672;2023-03-01T05:09:03;102800.03;;;-4.47;53.20
20656;BME280;10487;53.320;8.672;2023-03-01T05:12:05;102811.38;;;-4.45;52.80
20656;BME280;10487;53.320;8.672;2023-03-01T05:15:07;102812.25;;;-4.46;52.44
20656;BME280;10487;53.320;8.672;2023-03-01T05:18:08;102807.84;;;-4.47;53.13
20656;BME280;10487;53.320;8.672;2023-03-01T05:21:13;102807.84;;;-4.47;53.09
20656;BME280;10487;53.320;8.672;2023-03-01T05:24:17;102812.19;;;-4.48;53.08
20656;BME280;10487;53.320;8.672;2023-03-01T05:27:19;102799.13;;;-4.49;53.13
20656;BME280;10487;53.320;8.672;2023-03-01T05:30:23;102804.34;;;-4.49;52.84
20656;BME280;10487;53.320;8.672;2023-03-01T05:33:26;102797.38;;;-4.50;53.08
20656;BME280;10487;53.320;8.672;2023-03-01T05:36:28;102801.72;;;-4.51;52.55
20656;BME280;10487;53.320;8.672;2023-03-01T05:39:30;102799.94;;;-4.52;53.00
20656;BME280;10487;53.320;8.672;2023-03-01T05:42:32;102799.06;;;-4.52;52.67
20656;BME280;10487;53.320;8.672;2023-03-01T05:45:36;102801.66;;;-4.52;53.18
20656;BME280;10487;53.320;8.672;2023-03-01T05:48:38;102799.38;;;-3.94;53.63
20656;BME280;10487;53.320;8.672;2023-03-01T05:51:41;102798.84;;;-3.75;53.38
20656;BME280;10487;53.320;8.672;2023-03-01T05:54:42;102798.81;;;-3.76;53.10
20656;BME280;10487;53.320;8.672;2023-03-01T05:57:44;102798.69;;;-3.82;53.00
20656;BME280;10487;53.320;8.672;2023-03-01T06:00:47;102803.78;;;-3.90;52.97
20656;BME280;10487;53.320;8.672;2023-03-01T06:03:49;102806.25;;;-3.96;53.33
20656;BME280;10487;53.320;8.672;2023-03-01T06:06:50;102812.22;;;-4.03;52.71
20656;BME280;10487;53.320;8.672;2023-03-01T06:09:52;102805.19;;;-4.08;53.67
20656;BME280;10487;53.320;8.672;2023-03-01T06:12:54;102816.38;;;-4.14;53.07
20656;BME280;10487;53.320;8.672;2023-03-01T06:15:56;102822.34;;;-4.18;52.94
20656;BME280;10487;53.320;8.672;2023-03-01T06:18:57;102829.19;;;-4.23;53.30
20656;BME280;10487;53.320;8.672;2023-03-01T06:21:59;102817.78;;;-4.29;52.87
20656;BME280;10487;53.320;8.672;2023-03-01T06:25:00;102816.81;;;-4.33;53.35
20656;BME280;10487;53.320;8.672;2023-03-01T06:28:02;102813.28;;;-4.38;53.42
20656;BME280;10487;53.320;8.672;2023-03-01T06:31:05;102811.44;;;-4.42;53.15
20656;BME280;10487;53.320;8.672;2023-03-01T06:34:10;102815.75;;;-4.44;52.77
20656;BME280;10487;53.320;8.672;2023-03-01T06:37:14;102816.53;;;-4.48;53.16
20656;BME280;10487;53.320;8.672;2023-03-01T06:40:16;102815.59;;;-4.50;52.70
20656;BME280;10487;53.320;8.672;2023-03-01T06:43:18;102819.97;;;-4.49;53.00
20656;BME280;10487;53.320;8.672;2023-03-01T06:46:19;102820.88;;;-4.49;53.37
20656;BME280;10487;53.320;8.672;2023-03-01T06:49:21;102819.16;;;-4.47;52.74
20656;BME280;10487;53.320;8.672;2023-03-01T06:52:22;102817.47;;;-4.45;53.13
20656;BME280;10487;53.320;8.672;2023-03-01T06:55:24;102820.13;;;-4.43;53.09
20656;BME280;10487;53.320;8.672;2023-03-01T06:58:26;102825.38;;;-4.40;52.99
20656;BME280;10487;53.320;8.672;2023-03-01T07:01:30;102817.63;;;-4.37;53.56
20656;BME280;10487;53.320;8.672;2023-03-01T07:04:31;102815.09;;;-4.34;53.01
20656;BME280;10487;53.320;8.672;2023-03-01T07:07:33;102823.00;;;-4.29;53.50
20656;BME280;10487;53.320;8.672;2023-03-01T07:10:35;102826.56;;;-4.26;53.20
20656;BME280;10487;53.320;8.672;2023-03-01T07:13:36;102831.81;;;-4.23;52.79
20656;BME280;10487;53.320;8.672;2023-03-01T07:16:38;102823.22;;;-4.19;53.28
20656;BME280;10487;53.320;8.672;2023-03-01T07:19:39;102817.19;;;-4.15;53.44
20656;BME280;10487;53.320;8.672;2023-03-01T07:22:41;102815.97;;;-3.89;54.41
20656;BME280;10487;53.320;8.672;2023-03-01T07:25:53;102823.31;;;-3.17;53.80
20656;BME280;10487;53.320;8.672;2023-03-01T07:28:55;102821.88;;;-2.97;53.88
20656;BME280;10487;53.320;8.672;2023-03-01T07:31:57;102813.22;;;-2.93;53.52
20656;BME280;10487;53.320;8.672;2023-03-01T07:34:58;102808.88;;;-2.92;53.10
20656;BME280;10487;53.320;8.672;2023-03-01T07:38:00;102817.53;;;-2.93;53.52
20656;BME280;10487;53.320;8.672;2023-03-01T07:41:03;102807.94;;;-2.96;53.41
20656;BME280;10487;53.320;8.672;2023-03-01T07:44:05;102814.88;;;-2.98;53.23
20656;BME280;10487;53.320;8.672;2023-03-01T07:47:07;102805.25;;;-3.00;53.49
20656;BME280;10487;53.320;8.672;2023-03-01T07:50:09;102815.69;;;-3.02;53.25
20656;BME280;10487;53.320;8.672;2023-03-01T07:53:11;102813.03;;;-3.04;53.61
20656;BME280;10487;53.320;8.672;2023-03-01T07:56:14;102817.38;;;-3.06;53.67
20656;BME280;10487;53.320;8.672;2023-03-01T07:59:18;102813.03;;;-3.05;53.79
20656;BME280;10487;53.320;8.672;2023-03-01T08:02:20;102813.94;;;-3.03;53.51
20656;BME280;10487;53.320;8.672;2023-03-01T08:05:21;102807.03;;;-2.99;53.22
20656;BME280;10487;53.320;8.672;2023-03-01T08:08:23;102809.66;;;-2.96;53.12
20656;BME280;10487;53.320;8.672;2023-03-01T08:11:25;102813.22;;;-2.91;53.86
20656;BME280;10487;53.320;8.672;2023-03-01T08:14:26;102813.63;;;-2.63;53.53
20656;BME280;10487;53.320;8.672;2023-03-01T08:17:28;102801.56;;;-2.53;53.25
20656;BME280;10487;53.320;8.672;2023-03-01T08:20:29;102805.97;;;-2.49;53.30
20656;BME280;10487;53.320;8.672;2023-03-01T08:23:31;102806.03;;;-2.45;53.29
20656;BME280;10487;53.320;8.672;2023-03-01T08:26:33;102806.09;;;-2.40;53.32
20656;BME280;10487;53.320;8.672;2023-03-01T08:29:35;102801.78;;;-2.35;53.14
20656;BME280;10487;53.320;8.672;2023-03-01T08:32:38;102794.03;;;-2.24;53.76
20656;BME280;10487;53.320;8.672;2023-03-01T08:35:40;102795.06;;;-2.13;53.46
20656;BME280;10487;53.320;8.672;2023-03-01T08:38:42;102791.72;;;-2.00;53.48
20656;BME280;10487;53.320;8.672;2023-03-01T08:41:43;102800.56;;;-1.88;53.34
20656;BME280;10487;53.320;8.672;2023-03-01T08:44:48;102797.19;;;-1.75;53.15
20656;BME280;10487;53.320;8.672;2023-03-01T08:47:52;102797.38;;;-1.56;53.32
20656;BME280;10487;53.320;8.672;2023-03-01T08:50:54;102787.88;;;-1.44;53.25
20656;BME280;10487;53.320;8.672;2023-03-01T08:53:56;102789.72;;;-1.28;53.42
20656;BME280;10487;53.320;8.672;2023-03-01T08:57:01;102785.47;;;-1.11;53.17
20656;BME280;10487;53.320;8.672;2023-03-01T09:00:03;102797.84;;;-0.96;53.63
20656;BME280;10487;53.320;8.672;2023-03-01T09:03:04;102795.31;;;-0.81;53.35
20656;BME280;10487;53.320;8.672;2023-03-01T09:06:07;102791.00;;;-0.67;53.25
20656;BME280;10487;53.320;8.672;2023-03-01T09:09:16;102798.91;;;-0.53;53.48
20656;BME280;10487;53.320;8.672;2023-03-01T09:12:18;102798.09;;;-0.38;53.47
20656;BME280;10487;53.320;8.672;2023-03-01T09:15:20;102799.03;;;-0.23;53.58
20656;BME280;10487;53.320;8.672;2023-03-01T09:18:21;102789.47;;;-0.06;53.63
20656;BME280;10487;53.320;8.672;2023-03-01T09:21:23;102786.03;;;0.13;53.45
20656;BME280;10487;53.320;8.672;2023-03-01T09:24:40;102779.03;;;0.37;53.41
20656;BME280;10487;53.320;8.672;2023-03-01T09:27:43;102779.91;;;0.61;53.36
20656;BME280;10487;53.320;8.672;2023-03-01T09:30:44;102772.88;;;0.83;53.52
20656;BME280;10487;53.320;8.672;2023-03-01T09:33:47;102782.50;;;1.04;53.30
20656;BME280;10487;53.320;8.672;2023-03-01T09:36:50;102791.22;;;1.24;53.35
20656;BME280;10487;53.320;8.672;2023-03-01T09:39:52;102785.88;;;1.48;53.06
20656;BME280;10487;53.320;8.672;2023-03-01T09:43:13;102784.00;;;1.73;52.90
20656;BME280;10487;53.320;8.672;2023-03-01T09:46:17;102786.31;;;2.29;53.58
20656;BME280;10487;53.320;8.672;2023-03-01T09:49:29;102793.88;;;2.69;53.43
20656;BME280;10487;53.320;8.672;2023-03-01T09:52:41;102776.13;;;2.87;53.29
20656;BME280;10487;53.320;8.672;2023-03-01T09:55:59;102777.75;;;3.03;53.27
20656;BME280;10487;53.320;8.672;2023-03-01T10:05:43;102776.44;;;3.43;52.90
20656;BME280;10487;53.320;8.672;2023-03-01T10:09:02;102778.97;;;3.52;52.88
20656;BME280;10487;53.320;8.672;2023-03-01T10:12:12;102778.88;;;3.60;52.69
20656;BME280;10487;53.320;8.672;2023-03-01T10:15:18;102777.06;;;3.63;52.57
20656;BME280;10487;53.320;8.672;2023-03-01T10:18:26;102779.56;;;3.72;52.65
20656;BME280;10487;53.320;8.672;2023-03-01T10:21:30;102782.03;;;3.87;52.71
20656;BME280;10487;53.320;8.672;2023-03-01T10:24:35;102783.56;;;4.02;52.70
20656;BME280;10487;53.320;8.672;2023-03-01T10:30:44;102786.63;;;4.31;52.60
20656;BME280;10487;53.320;8.672;2023-03-01T10:33:46;102782.88;;;4.47;52.50
20656;BME280;10487;53.320;8.672;2023-03-01T10:36:56;102782.53;;;4.67;52.49
20656;BME280;10487;53.320;8.672;2023-03-01T10:40:07;102767.22;;;4.84;52.55
20656;BME280;10487;53.320;8.672;2023-03-01T10:43:12;102771.41;;;4.97;52.26
20656;BME280;10487;53.320;8.672;2023-03-01T10:46:29;102770.25;;;5.10;52.40
20656;BME280;10487;53.320;8.672;2023-03-01T10:49:31;102760.34;;;5.23;52.31
20656;BME280;10487;53.320;8.672;2023-03-01T10:52:37;102762.78;;;5.33;52.31
20656;BME280;10487;53.320;8.672;2023-03-01T10:55:41;102757.34;;;5.39;52.13
20656;BME280;10487;53.320;8.672;2023-03-01T10:59:01;102759.09;;;5.40;52.19
20656;BME280;10487;53.320;8.672;2023-03-01T11:02:16;102763.38;;;5.48;52.09
20656;BME280;10487;53.320;8.672;2023-03-01T11:05:26;102759.72;;;5.53;52.11
20656;BME280;10487;53.320;8.672;2023-03-01T11:08:50;102753.44;;;5.57;52.08
20656;BME280;10487;53.320;8.672;2023-03-01T11:11:56;102747.16;;;5.63;52.10
20656;BME280;10487;53.320;8.672;2023-03-01T11:14:57;102743.47;;;5.70;52.14
20656;BME280;10487;53.320;8.672;2023-03-01T11:17:59;102750.22;;;5.83;52.08
20656;BME280;10487;53.320;8.672;2023-03-01T11:21:15;102745.66;;;5.91;51.96
20656;BME280;10487;53.320;8.672;2023-03-01T11:24:18;102743.66;;;5.99;51.97
20656;BME280;10487;53.320;8.672;2023-03-01T11:27:38;102750.72;;;6.00;51.83
20656;BME280;10487;53.320;8.672;2023-03-01T11:31:00;102741.28;;;5.87;51.79
20656;BME280;10487;53.320;8.672;2023-03-01T11:34:16;102736.88;;;5.89;52.08
20656;BME280;10487;53.320;8.672;2023-03-01T11:37:28;102746.47;;;5.93;52.03
20656;BME280;10487;53.320;8.672;2023-03-01T11:40:41;102746.25;;;6.02;51.87
20656;BME280;10487;53.320;8.672;2023-03-01T11:47:13;102737.06;;;6.17;52.09
20656;BME280;10487;53.320;8.672;2023-03-01T11:54:13;102735.50;;;6.08;51.77
20656;BME280;10487;53.320;8.672;2023-03-01T11:57:43;102744.16;;;6.16;52.04
20656;BME280;10487;53.320;8.672;2023-03-01T12:07:47;102725.97;;;6.36;51.91
20656;BME280;10487;53.320;8.672;2023-03-01T12:14:47;102718.81;;;6.40;51.88
20656;BME280;10487;53.320;8.672;2023-03-01T12:18:49;102703.84;;;6.37;51.84
20656;BME280;10487;53.320;8.672;2023-03-01T12:28:47;102698.41;;;6.43;51.73
20656;BME280;10487;53.320;8.672;2023-03-01T12:39:20;102680.00;;;6.37;51.87
20656;BME280;10487;53.320;8.672;2023-03-01T12:42:58;102672.03;;;6.37;51.73
20656;BME280;10487;53.320;8.672;2023-03-01T12:49:45;102673.38;;;6.20;51.63
20656;BME280;10487;53.320;8.672;2023-03-01T12:52:57;102659.47;;;6.10;51.86
20656;BME280;10487;53.320;8.672;2023-03-01T12:56:21;102666.38;;;6.17;52.05
20656;BME280;10487;53.320;8.672;2023-03-01T13:06:08;102645.97;;;6.21;51.83
20656;BME280;10487;53.320;8.672;2023-03-01T13:15:54;102633.16;;;6.36;51.81
20656;BME280;10487;53.320;8.672;2023-03-01T13:19:10;102641.56;;;6.52;51.87
20656;BME280;10487;53.320;8.672;2023-03-01T13:22:27;102631.63;;;6.60;51.68
20656;BME280;10487;53.320;8.672;2023-03-01T13:25:29;102637.63;;;6.66;51.85
20656;BME280;10487;53.320;8.672;2023-03-01T13:28:56;102626.09;;;6.69;51.40
20656;BME280;10487;53.320;8.672;2023-03-01T13:31:58;102621.09;;;6.57;51.65
20656;BME280;10487;53.320;8.672;2023-03-01T13:35:02;102611.38;;;6.57;51.68
20656;BME280;10487;53.320;8.672;2023-03-01T13:38:48;102616.31;;;6.71;51.75
20656;BME280;10487;53.320;8.672;2023-03-01T13:42:00;102619.03;;;6.69;51.46
20656;BME280;10487;53.320;8.672;2023-03-01T13:45:02;102619.03;;;6.69;51.50
20656;BME280;10487;53.320;8.672;2023-03-01T13:48:24;102620.00;;;6.65;51.45
20656;BME280;10487;53.320;8.672;2023-03-01T13:51:27;102617.47;;;6.61;51.61
20656;BME280;10487;53.320;8.672;2023-03-01T13:54:31;102612.13;;;6.62;51.64
20656;BME280;10487;53.320;8.672;2023-03-01T13:57:34;102614.78;;;6.62;51.60
20656;BME280;10487;53.320;8.672;2023-03-01T14:00:39;102610.38;;;6.61;51.69
20656;BME280;10487;53.320;8.672;2023-03-01T14:03:41;102609.53;;;6.59;51.49
20656;BME280;10487;53.320;8.672;2023-03-01T14:06:43;102603.38;;;6.59;51.65
20656;BME280;10487;53.320;8.672;2023-03-01T14:09:48;102598.06;;;6.59;51.65
20656;BME280;10487;53.320;8.672;2023-03-01T14:12:55;102591.16;;;6.53;51.62
20656;BME280;10487;53.320;8.672;2023-03-01T14:23:21;102578.75;;;6.23;51.70
20656;BME280;10487;53.320;8.672;2023-03-01T14:26:23;102579.63;;;6.22;51.77
20656;BME280;10487;53.320;8.672;2023-03-01T14:32:28;102569.09;;;6.19;51.73
20656;BME280;10487;53.320;8.672;2023-03-01T14:35:33;102567.41;;;6.17;51.49
20656;BME280;10487;53.320;8.672;2023-03-01T14:38:40;102574.53;;;6.15;51.71
20656;BME280;10487;53.320;8.672;2023-03-01T14:41:42;102568.47;;;6.10;51.71
20656;BME280;10487;53.320;8.672;2023-03-01T14:44:50;102558.97;;;6.02;51.53
20656;BME280;10487;53.320;8.672;2023-03-01T14:47:52;102549.38;;;5.97;51.70
20656;BME280;10487;53.320;8.672;2023-03-01T14:50:54;102537.06;;;5.96;51.80
20656;BME280;10487;53.320;8.672;2023-03-01T14:53:56;102532.63;;;5.96;51.68
20656;BME280;10487;53.320;8.672;2023-03-01T14:57:00;102536.09;;;5.98;51.67
20656;BME280;10487;53.320;8.672;2023-03-01T15:00:05;102529.94;;;5.98;51.63
20656;BME280;10487;53.320;8.672;2023-03-01T15:03:11;102529.94;;;5.98;51.65
20656;BME280;10487;53.320;8.672;2023-03-01T15:06:17;102529.88;;;5.99;51.65
20656;BME280;10487;53.320;8.672;2023-03-01T15:09:20;102524.72;;;5.95;51.61
20656;BME280;10487;53.320;8.672;2023-03-01T15:18:32;102520.75;;;5.79;51.78
20656;BME280;10487;53.320;8.672;2023-03-01T15:21:36;102509.38;;;5.74;51.71
20656;BME280;10487;53.320;8.672;2023-03-01T15:24:38;102513.94;;;5.67;51.70
20656;BME280;10487;53.320;8.672;2023-03-01T15:27:45;102511.44;;;5.63;51.67
20656;BME280;10487;53.320;8.672;2023-03-01T15:30:53;102512.38;;;5.60;51.51
20656;BME280;10487;53.320;8.672;2023-03-01T15:34:21;102504.56;;;5.56;51.72
20656;BME280;10487;53.320;8.672;2023-03-01T15:40:49;102493.19;;;5.51;51.74
20656;BME280;10487;53.320;8.672;2023-03-01T15:43:51;102487.09;;;5.49;51.73
20656;BME280;10487;53.320;8.672;2023-03-01T15:46:57;102490.63;;;5.48;51.83
20656;BME280;10487;53.320;8.672;2023-03-01T15:49:59;102495.91;;;5.48;51.84
20656;BME280;10487;53.320;8.672;2023-03-01T15:53:06;102502.16;;;5.45;51.79
20656;BME280;10487;53.320;8.672;2023-03-01T15:56:09;102498.69;;;5.43;51.88
20656;BME280;10487;53.320;8.672;2023-03-01T15:59:11;102490.78;;;5.42;51.77
20656;BME280;10487;53.320;8.672;2023-03-01T16:02:15;102482.00;;;5.39;51.83
20656;BME280;10487;53.320;8.672;2023-03-01T16:05:24;102489.09;;;5.37;51.76
20656;BME280;10487;53.320;8.672;2023-03-01T16:08:26;102487.41;;;5.35;51.85
20656;BME280;10487;53.320;8.672;2023-03-01T16:11:27;102485.75;;;5.31;51.90
20656;BME280;10487;53.320;8.672;2023-03-01T16:14:29;102487.59;;;5.27;51.91
20656;BME280;10487;53.320;8.672;2023-03-01T16:17:31;102495.66;;;5.23;51.85
20656;BME280;10487;53.320;8.672;2023-03-01T16:20:32;102495.66;;;5.23;51.80
20656;BME280;10487;53.320;8.672;2023-03-01T16:23:34;102494.81;;;5.21;51.78
20656;BME280;10487;53.320;8.672;2023-03-01T16:26:36;102495.75;;;5.18;51.73
20656;BME280;10487;53.320;8.672;2023-03-01T16:29:39;102491.50;;;5.11;51.87
20656;BME280;10487;53.320;8.672;2023-03-01T16:32:42;102492.56;;;5.04;51.85
20656;BME280;10487;53.320;8.672;2023-03-01T16:35:44;102498.91;;;4.97;51.86
20656;BME280;10487;53.320;8.672;2023-03-01T16:38:46;102501.63;;;4.93;51.99
20656;BME280;10487;53.320;8.672;2023-03-01T16:41:49;102507.94;;;4.87;52.04
20656;BME280;10487;53.320;8.672;2023-03-01T16:44:57;102503.66;;;4.80;52.08
20656;BME280;10487;53.320;8.672;2023-03-01T16:47:59;102496.78;;;4.73;52.12
20656;BME280;10487;53.320;8.672;2023-03-01T16:51:01;102506.66;;;4.65;52.31
20656;BME280;10487;53.320;8.672;2023-03-01T16:54:03;102499.78;;;4.56;52.06
20656;BME280;10487;53.320;8.672;2023-03-01T16:57:05;102503.47;;;4.49;52.37
20656;BME280;10487;53.320;8.672;2023-03-01T17:00:08;102500.25;;;4.35;52.29
20656;BME280;10487;53.320;8.672;2023-03-01T17:03:14;102503.16;;;4.22;52.24
20656;BME280;10487;53.320;8.672;2023-03-01T17:06:20;102507.22;;;4.38;52.20
20656;BME280;10487;53.320;8.672;2023-03-01T17:09:23;102508.31;;;4.28;52.38
20656;BME280;10487;53.320;8.672;2023-03-01T17:12:25;102505.84;;;4.19;52.23
20656;BME280;10487;53.320;8.672;2023-03-01T17:15:26;102507.84;;;4.07;52.27
20656;BME280;10487;53.320;8.672;2023-03-01T17:18:28;102515.06;;;3.98;52.29
20656;BME280;10487;53.320;8.672;2023-03-01T17:21:29;102518.72;;;3.89;52.50
20656;BME280;10487;53.320;8.672;2023-03-01T17:24:37;102518.81;;;3.85;52.38
20656;BME280;10487;53.320;8.672;2023-03-01T17:27:39;102520.69;;;3.78;52.38
20656;BME280;10487;53.320;8.672;2023-03-01T17:30:43;102524.28;;;3.74;52.30
20656;BME280;10487;53.320;8.672;2023-03-01T17:33:45;102522.63;;;3.69;52.33
20656;BME280;10487;53.320;8.672;2023-03-01T17:36:47;102533.31;;;3.61;52.52
20656;BME280;10487;53.320;8.672;2023-03-01T17:39:50;102527.31;;;3.52;52.57